Time;durP1;ratioP1;P1;durP2;ratioP2;P2;SDS_P1;SDS_P2;PMS_P1;PMS_P2;Temp;Humidity;BMP_temperature;BMP_pressure;BME280_temperature;BME280_humidity;BME280_pressure;Samples;Min_cycle;Max_cycle;Signal;HPM_P1;HPM_P2
2021/03/05 00:01:24;;;;;;;;;;;;;;;18.13;62.57;100752.84;5056966;28;907;-46
2021/03/05 00:03:50;;;;;;;;;;;;;;;18.14;62.49;100759.88;5056862;28;1987;-46
2021/03/05 00:06:15;;;;;;;;;;;;;;;18.11;62.57;100746.78;5056762;28;849;-45
2021/03/05 00:08:40;;;;;;;;;;;;;;;18.13;62.60;100736.78;5056524;28;983;-46
2021/03/05 00:11:06;;;;;;;;;;;;;;;18.12;62.00;100740.44;5056392;28;1341;-46
2021/03/05 00:13:31;;;;;;;;;;;;;;;18.16;62.39;100741.88;5056664;28;795;-46
2021/03/05 00:15:56;;;;;;;;;;;;;;;18.15;62.02;100756.25;5056735;28;838;-46
2021/03/05 00:18:22;;;;;;;;;;;;;;;18.17;62.23;100748.09;5056678;28;770;-46
2021/03/05 00:20:51;;;;;;;;;;;;;;;18.18;62.17;100749.78;5056538;28;802;-46
2021/03/05 00:23:16;;;;;;;;;;;;;;;18.15;61.96;100734.84;5056201;28;1961;-45
2021/03/05 00:25:42;;;;;;;;;;;;;;;18.16;62.10;100744.53;5056262;28;845;-46
2021/03/05 00:28:07;;;;;;;;;;;;;;;18.15;61.76;100734.84;5056299;28;996;-45
2021/03/05 00:30:35;;;;;;;;;;;;;;;18.16;61.82;100741.03;5056420;28;849;-45
2021/03/05 00:33:01;;;;;;;;;;;;;;;18.15;62.32;100726.81;5056084;28;880;-46
2021/03/05 00:35:27;;;;;;;;;;;;;;;18.13;62.34;100720.75;5055904;28;881;-46
2021/03/05 00:37:52;;;;;;;;;;;;;;;18.14;62.38;100725.09;5056274;28;828;-46
2021/03/05 00:40:19;;;;;;;;;;;;;;;18.16;62.11;100724.97;5056394;28;848;-46
2021/03/05 00:42:45;;;;;;;;;;;;;;;18.15;62.47;100721.47;5056307;28;1890;-46
2021/03/05 00:45:11;;;;;;;;;;;;;;;18.15;61.93;100718.78;5055794;28;1762;-45
2021/03/05 00:47:36;;;;;;;;;;;;;;;18.17;62.16;100715.97;5055977;28;1453;-46
2021/03/05 00:50:03;;;;;;;;;;;;;;;18.17;61.77;100727.53;5056000;28;817;-46
2021/03/05 00:52:28;;;;;;;;;;;;;;;18.15;61.76;100716.09;5056012;28;785;-45
2021/03/05 00:54:53;;;;;;;;;;;;;;;18.18;61.93;100712.31;5056041;28;852;-45
2021/03/05 00:57:18;;;;;;;;;;;;;;;18.20;62.25;100715.69;5055835;28;825;-46
2021/03/05 00:59:44;;;;;;;;;;;;;;;18.18;62.12;100713.16;5055672;28;790;-46
2021/03/05 01:02:09;;;;;;;;;;;;;;;18.16;61.74;100709.75;5055501;28;2022;-46
2021/03/05 01:04:34;;;;;;;;;;;;;;;18.21;61.94;100701.34;5055531;28;845;-46
2021/03/05 01:06:59;;;;;;;;;;;;;;;18.20;62.56;100696.97;5055316;28;917;-46
2021/03/05 01:09:24;;;;;;;;;;;;;;;18.18;62.10;100704.28;5055686;28;875;-46
2021/03/05 01:11:50;;;;;;;;;;;;;;;18.17;62.07;100706.13;5055524;28;1432;-46
2021/03/05 01:14:15;;;;;;;;;;;;;;;18.19;61.58;100704.16;5055457;28;1044;-46
2021/03/05 01:16:40;;;;;;;;;;;;;;;18.17;61.65;100694.56;5055530;28;793;-45
2021/03/05 01:19:07;;;;;;;;;;;;;;;18.18;62.07;100704.28;5055396;28;896;-46
2021/03/05 01:21:32;;;;;;;;;;;;;;;18.19;61.84;100720.22;5055007;28;863;-45
2021/03/05 01:23:57;;;;;;;;;;;;;;;18.21;61.50;100712.06;5055362;28;1893;-46
2021/03/05 01:26:23;;;;;;;;;;;;;;;18.22;61.75;100719.97;5055312;28;972;-46
2021/03/05 01:28:48;;;;;;;;;;;;;;;18.20;62.05;100707.66;5055661;28;797;-46
2021/03/05 01:31:14;;;;;;;;;;;;;;;18.20;62.01;100713.03;5054979;28;805;-46
2021/03/05 01:33:39;;;;;;;;;;;;;;;18.20;61.56;100705.84;5055125;28;1565;-46
2021/03/05 01:36:05;;;;;;;;;;;;;;;18.20;61.91;100695.13;5055121;28;867;-45
2021/03/05 01:38:31;;;;;;;;;;;;;;;18.19;61.34;100704.16;5055060;28;839;-46
2021/03/05 01:40:56;;;;;;;;;;;;;;;18.22;61.40;100713.75;5055228;28;949;-45
2021/03/05 01:43:21;;;;;;;;;;;;;;;18.17;61.40;100698.09;5054948;28;1894;-46
2021/03/05 01:45:47;;;;;;;;;;;;;;;18.21;61.39;100702.19;5054676;28;1301;-46
2021/03/05 01:48:17;;;;;;;;;;;;;;;18.21;61.34;100712.91;5054626;28;885;-45
2021/03/05 01:50:50;;;;;;;;;;;;;;;18.21;61.89;100696.84;5054758;28;872;-46
2021/03/05 01:53:16;;;;;;;;;;;;;;;18.22;62.11;100698.56;5054837;28;786;-46
2021/03/05 01:55:41;;;;;;;;;;;;;;;18.20;62.15;100700.47;5054745;28;855;-45
2021/03/05 01:58:07;;;;;;;;;;;;;;;18.17;62.00;100695.41;5054488;28;889;-45
2021/03/05 02:00:36;;;;;;;;;;;;;;;18.18;62.05;100702.44;5037261;28;1484;-45
2021/03/05 02:03:01;;;;;;;;;;;;;;;18.18;61.77;100691.72;5034318;28;1902;-45
2021/03/05 02:05:27;;;;;;;;;;;;;;;18.16;61.98;100699.06;5034206;28;918;-46
2021/03/05 02:07:52;;;;;;;;;;;;;;;18.16;62.09;100707.06;5034654;28;778;-45
2021/03/05 02:10:17;;;;;;;;;;;;;;;18.17;62.10;100706.13;5034648;28;785;-46
2021/03/05 02:12:43;;;;;;;;;;;;;;;18.20;61.64;100699.63;5034495;28;1487;-46
2021/03/05 02:15:09;;;;;;;;;;;;;;;18.16;61.52;100701.72;5033627;28;897;-45
2021/03/05 02:17:37;;;;;;;;;;;;;;;18.17;61.93;100700.75;5038067;28;1667;-46
2021/03/05 02:20:03;;;;;;;;;;;;;;;18.19;61.81;100704.16;5052918;28;1083;-46
2021/03/05 02:22:47;;;;;;;;;;;;;;;18.15;62.03;100708.06;5035868;28;1891;-46
2021/03/05 02:25:15;;;;;;;;;;;;;;;18.16;62.00;100709.75;5033769;28;855;-46
2021/03/05 02:28:11;;;;;;;;;;;;;;;18.14;61.45;100717.06;5034465;28;818;-45
2021/03/05 02:30:57;;;;;;;;;;;;;;;18.14;61.95;100701.00;5034122;28;877;-46
2021/03/05 02:33:24;;;;;;;;;;;;;;;18.16;62.12;100715.09;5034103;28;875;-45
2021/03/05 02:35:51;;;;;;;;;;;;;;;18.13;61.98;100704.69;5033406;28;998;-46
2021/03/05 02:38:18;;;;;;;;;;;;;;;18.12;61.96;100702.97;5033102;28;778;-45
2021/03/05 02:40:44;;;;;;;;;;;;;;;18.12;62.11;100713.69;5033845;28;849;-45
2021/03/05 02:43:16;;;;;;;;;;;;;;;18.08;62.03;100705.09;5033412;28;1874;-46
2021/03/05 02:45:43;;;;;;;;;;;;;;;18.06;61.45;100700.81;5033580;28;1157;-45
2021/03/05 02:48:12;;;;;;;;;;;;;;;18.09;61.61;100719.31;5034067;28;778;-46
2021/03/05 02:50:40;;;;;;;;;;;;;;;18.09;62.01;100724.66;5033712;28;840;-46
2021/03/05 02:53:07;;;;;;;;;;;;;;;18.07;62.24;100723.94;5033794;28;1912;-46
2021/03/05 02:55:32;;;;;;;;;;;;;;;18.05;62.05;100717.88;5033432;28;793;-46
2021/03/05 02:57:58;;;;;;;;;;;;;;;18.06;61.52;100724.91;5033717;28;834;-45
2021/03/05 03:03:27;;;;;;;;;;;;;;;18.05;61.15;100731.25;5033845;28;1910;-46
2021/03/05 03:05:53;;;;;;;;;;;;;;;18.04;62.16;100733.06;5033645;28;887;-46
2021/03/05 03:08:19;;;;;;;;;;;;;;;18.06;61.44;100740.97;5033385;28;880;-46
2021/03/05 03:13:48;;;;;;;;;;;;;;;18.03;61.37;100747.44;5035097;28;771;-60
2021/03/05 03:16:15;;;;;;;;;;;;;;;17.99;61.22;100731.78;5034945;28;776;-59
2021/03/05 03:18:41;;;;;;;;;;;;;;;18.01;61.40;100744.03;5034945;28;834;-60
2021/03/05 03:21:07;;;;;;;;;;;;;;;17.97;61.17;100731.06;5034781;28;1567;-57
2021/03/05 03:23:32;;;;;;;;;;;;;;;18.00;61.73;100730.78;5034576;28;1910;-59
2021/03/05 03:25:59;;;;;;;;;;;;;;;18.02;61.40;100739.53;5034531;28;851;-60
2021/03/05 03:28:24;;;;;;;;;;;;;;;17.99;61.99;100742.47;5038160;28;855;-59
2021/03/05 03:30:49;;;;;;;;;;;;;;;17.98;62.03;100748.78;5038875;28;735;-56
2021/03/05 03:33:14;;;;;;;;;;;;;;;18.00;61.41;100752.19;5038947;28;798;-60
2021/03/05 03:35:41;;;;;;;;;;;;;;;18.00;61.72;100738.81;5038519;28;864;-60
2021/03/05 03:38:08;;;;;;;;;;;;;;;17.95;62.05;100747.22;5038833;28;788;-59
2021/03/05 03:40:34;;;;;;;;;;;;;;;17.98;61.81;100735.41;5038509;28;808;-59
2021/03/05 03:42:59;;;;;;;;;;;;;;;17.97;61.51;100749.78;5038683;28;1894;-56
2021/03/05 03:45:25;;;;;;;;;;;;;;;17.95;61.84;100754.41;5038567;28;1577;-60
2021/03/05 03:47:51;;;;;;;;;;;;;;;17.95;61.25;100739.22;5038619;28;823;-56
2021/03/05 03:50:22;;;;;;;;;;;;;;;17.95;61.54;100744.56;5038352;28;813;-60
2021/03/05 03:52:56;;;;;;;;;;;;;;;17.94;62.19;100745.53;5038381;28;809;-56
2021/03/05 03:55:22;;;;;;;;;;;;;;;17.90;61.35;100730.69;5038346;28;751;-56
2021/03/05 03:57:49;;;;;;;;;;;;;;;17.94;61.89;100763.41;5038497;28;740;-57
2021/03/05 04:00:16;;;;;;;;;;;;;;;17.89;61.71;100740.56;5038361;28;1445;-60
2021/03/05 04:02:43;;;;;;;;;;;;;;;17.90;61.53;100749.44;5037892;28;1894;-60
2021/03/05 04:05:12;;;;;;;;;;;;;;;17.92;61.71;100754.66;5038481;28;816;-60
2021/03/05 04:07:40;;;;;;;;;;;;;;;17.92;61.22;100750.16;5038001;28;852;-56
2021/03/05 04:10:06;;;;;;;;;;;;;;;17.86;61.68;100732.78;5038239;28;763;-60
2021/03/05 04:12:32;;;;;;;;;;;;;;;17.86;61.95;100746.16;5037867;28;1321;-60
2021/03/05 04:14:58;;;;;;;;;;;;;;;17.88;61.30;100743.38;5037981;28;803;-58
2021/03/05 04:17:23;;;;;;;;;;;;;;;17.86;62.20;100732.78;5037860;28;792;-56
2021/03/05 04:19:49;;;;;;;;;;;;;;;17.85;61.14;100749.81;5037886;28;882;-56
2021/03/05 04:22:15;;;;;;;;;;;;;;;17.85;61.38;100731.09;5037809;28;1977;-59
2021/03/05 04:24:40;;;;;;;;;;;;;;;17.85;60.85;100744.47;5037897;28;827;-60
2021/03/05 04:27:07;;;;;;;;;;;;;;;17.85;61.35;100744.47;5037594;28;1067;-56
2021/03/05 04:29:32;;;;;;;;;;;;;;;17.86;61.20;100754.19;5037473;28;886;-56
2021/03/05 04:31:57;;;;;;;;;;;;;;;17.86;61.52;100748.84;5037573;28;920;-56
2021/03/05 04:34:23;;;;;;;;;;;;;;;17.84;61.38;100748.13;5037596;28;769;-59
2021/03/05 04:36:48;;;;;;;;;;;;;;;17.86;61.17;100751.50;5037437;28;741;-56
2021/03/05 04:39:13;;;;;;;;;;;;;;;17.82;62.04;100750.03;5036802;28;897;-56
2021/03/05 04:41:38;;;;;;;;;;;;;;;17.84;61.07;100753.47;5037252;28;805;-57
2021/03/05 04:44:04;;;;;;;;;;;;;;;17.82;62.00;100750.03;5037213;28;1885;-56
2021/03/05 04:46:29;;;;;;;;;;;;;;;17.83;62.09;100746.44;5037785;28;773;-56
2021/03/05 04:48:54;;;;;;;;;;;;;;;17.81;61.87;100740.34;5037707;28;838;-56
2021/03/05 04:51:20;;;;;;;;;;;;;;;17.83;61.13;100751.78;5037499;28;819;-58
2021/03/05 04:53:45;;;;;;;;;;;;;;;17.83;61.41;100754.47;5036942;28;830;-59
2021/03/05 04:56:10;;;;;;;;;;;;;;;17.80;61.50;100752.00;5037543;28;768;-60
2021/03/05 04:58:35;;;;;;;;;;;;;;;17.83;61.58;100758.94;5037209;28;1606;-56
2021/03/05 05:01:01;;;;;;;;;;;;;;;17.82;61.51;100766.09;5037018;28;950;-60
2021/03/05 05:03:26;;;;;;;;;;;;;;;17.80;61.98;100768.03;5036784;28;1906;-60
2021/03/05 05:05:51;;;;;;;;;;;;;;;17.81;61.42;100774.25;5037140;28;758;-60
2021/03/05 05:08:16;;;;;;;;;;;;;;;17.81;61.59;100764.41;5037330;28;745;-60
2021/03/05 05:10:41;;;;;;;;;;;;;;;17.83;61.49;100783.00;5036907;28;1002;-60
2021/03/05 05:13:07;;;;;;;;;;;;;;;17.82;61.89;100782.13;5036756;28;812;-56
2021/03/05 05:15:32;;;;;;;;;;;;;;;17.78;61.07;100772.66;5036705;28;793;-60
2021/03/05 05:17:57;;;;;;;;;;;;;;;17.84;61.56;100785.56;5036747;28;767;-59
2021/03/05 05:20:22;;;;;;;;;;;;;;;17.81;61.80;100774.25;5036774;28;745;-56
2021/03/05 05:22:48;;;;;;;;;;;;;;;17.79;60.85;100785.09;5036540;28;1902;-60
2021/03/05 05:25:13;;;;;;;;;;;;;;;17.80;61.44;100783.25;5036694;28;796;-60
2021/03/05 05:27:38;;;;;;;;;;;;;;;17.79;61.46;100782.41;5036824;28;812;-60
2021/03/05 05:30:04;;;;;;;;;;;;;;;17.82;61.20;100792.00;5036327;28;836;-60
2021/03/05 05:32:29;;;;;;;;;;;;;;;17.81;61.01;100796.50;5036640;28;960;-60
2021/03/05 05:34:54;;;;;;;;;;;;;;;17.80;61.09;100805.50;5036532;28;793;-60
2021/03/05 05:37:19;;;;;;;;;;;;;;;17.81;61.23;100806.38;5036621;28;854;-56
2021/03/05 05:39:45;;;;;;;;;;;;;;;17.84;61.55;100822.16;5036376;28;879;-58
2021/03/05 05:42:10;;;;;;;;;;;;;;;17.81;60.80;100817.06;5036298;28;1886;-60
2021/03/05 05:44:36;;;;;;;;;;;;;;;17.79;61.46;100809.16;5036416;28;794;-59
2021/03/05 05:47:02;;;;;;;;;;;;;;;17.80;61.28;100818.03;5036449;28;1597;-56
2021/03/05 05:49:28;;;;;;;;;;;;;;;17.84;61.05;100824.84;5035366;28;753;-60
2021/03/05 05:51:56;;;;;;;;;;;;;;;17.86;60.79;100831.75;5036217;28;805;-60
2021/03/05 05:54:22;;;;;;;;;;;;;;;17.87;60.90;100816.59;5035917;28;966;-56
2021/03/05 05:56:48;;;;;;;;;;;;;;;17.86;60.46;100815.72;5036171;28;773;-60
2021/03/05 05:59:13;;;;;;;;;;;;;;;17.91;60.79;100817.19;5036178;28;751;-59
2021/03/05 06:01:40;;;;;;;;;;;;;;;17.93;61.63;100831.28;5035953;28;1401;-60
2021/03/05 06:04:05;;;;;;;;;;;;;;;17.94;60.74;100822.25;5036076;28;1902;-56
2021/03/05 06:06:31;;;;;;;;;;;;;;;17.94;60.69;100823.09;5035756;28;835;-60
2021/03/05 06:09:00;;;;;;;;;;;;;;;18.00;60.64;100827.09;5035832;28;773;-56
2021/03/05 06:11:32;;;;;;;;;;;;;;;18.00;60.74;100829.78;5035677;28;1011;-56
2021/03/05 06:13:59;;;;;;;;;;;;;;;18.02;60.77;100835.84;5035565;28;891;-56
2021/03/05 06:16:24;;;;;;;;;;;;;;;18.02;60.14;100836.69;5035561;28;852;-56
2021/03/05 06:18:50;;;;;;;;;;;;;;;18.06;60.70;100823.91;5035568;28;928;-57
2021/03/05 06:21:15;;;;;;;;;;;;;;;18.07;60.89;100842.53;5035519;28;793;-60
2021/03/05 06:24:12;;;;;;;;;;;;;;;18.09;60.32;100832.53;5035303;28;1910;-60
2021/03/05 06:26:47;;;;;;;;;;;;;;;18.13;60.94;100825.13;4991738;28;1236;-56
2021/03/05 06:29:13;;;;;;;;;;;;;;;18.11;60.65;100837.78;5035575;28;854;-60
2021/03/05 06:31:38;;;;;;;;;;;;;;;18.16;60.34;100821.31;5046878;28;1512;-56
2021/03/05 06:34:04;;;;;;;;;;;;;;;18.16;60.03;100822.16;5055095;28;761;-60
2021/03/05 06:36:30;;;;;;;;;;;;;;;18.17;60.45;100818.53;5055297;28;1588;-56
2021/03/05 06:38:56;;;;;;;;;;;;;;;18.19;60.34;100821.91;5055401;28;789;-59
2021/03/05 06:41:21;;;;;;;;;;;;;;;18.24;59.90;100819.72;5054926;28;738;-56
2021/03/05 06:43:46;;;;;;;;;;;;;;;18.21;60.04;100825.31;5055106;28;1947;-59
2021/03/05 06:46:27;;;;;;;;;;;;;;;18.23;60.15;100823.34;5055466;28;828;-59
2021/03/05 06:48:53;;;;;;;;;;;;;;;18.25;60.43;100831.25;5054138;28;1529;-56
2021/03/05 06:51:18;;;;;;;;;;;;;;;18.24;59.90;100825.06;5055046;28;788;-60
2021/03/05 06:53:43;;;;;;;;;;;;;;;18.26;60.56;100828.47;5054777;28;859;-56
2021/03/05 06:56:23;;;;;;;;;;;;;;;18.26;59.98;100830.28;5054632;28;753;-59
2021/03/05 06:58:59;;;;;;;;;;;;;;;18.28;60.00;100820.28;5037486;28;1187;-60
2021/03/05 07:01:24;;;;;;;;;;;;;;;18.29;60.58;100825.53;5051301;28;1375;-56
2021/03/05 07:04:03;;;;;;;;;;;;;;;18.30;60.66;100821.00;5043959;28;1955;-60
2021/03/05 07:06:28;;;;;;;;;;;;;;;18.31;60.51;100830.75;5033431;28;1136;-60
2021/03/05 07:08:53;;;;;;;;;;;;;;;18.29;60.26;100827.34;5033452;28;1077;-56
2021/03/05 07:11:32;;;;;;;;;;;;;;;18.31;60.38;100828.06;5033388;28;1153;-60
2021/03/05 07:13:58;;;;;;;;;;;;;;;18.34;60.14;100826.94;5033263;28;1077;-60
2021/03/05 07:16:23;;;;;;;;;;;;;;;18.36;60.64;100838.38;5050747;28;1450;-56
2021/03/05 07:18:49;;;;;;;;;;;;;;;18.36;60.48;100822.31;5053789;28;1113;-56
2021/03/05 07:21:20;;;;;;;;;;;;;;;18.37;61.08;100832.06;5037537;28;1100;-60
2021/03/05 07:23:46;;;;;;;;;;;;;;;18.38;60.98;100815.00;5033815;28;1902;-60
2021/03/05 07:26:12;;;;;;;;;;;;;;;18.39;61.17;100836.31;5033150;28;1143;-60
2021/03/05 07:28:42;;;;;;;;;;;;;;;18.38;60.65;100821.22;5034022;28;1001;-56
2021/03/05 07:31:08;;;;;;;;;;;;;;;18.38;60.71;100815.00;5037371;28;1255;-56
2021/03/05 07:33:34;;;;;;;;;;;;;;;18.38;60.67;100821.22;5050606;28;1024;-60
2021/03/05 07:36:02;;;;;;;;;;;;;;;18.37;60.19;100818.69;5042112;28;1060;-60
2021/03/05 07:38:29;;;;;;;;;;;;;;;18.42;60.57;100819.13;5049695;28;1199;-57
2021/03/05 07:40:58;;;;;;;;;;;;;;;18.39;60.24;100816.72;5027992;28;1172;-60
2021/03/05 07:43:23;;;;;;;;;;;;;;;18.39;60.27;100822.06;5041189;28;1886;-57
2021/03/05 07:45:48;;;;;;;;;;;;;;;18.40;60.06;100813.03;5040303;28;1191;-60
2021/03/05 07:48:14;;;;;;;;;;;;;;;18.37;60.55;100798.09;5033413;28;1168;-60
2021/03/05 07:50:39;;;;;;;;;;;;;;;18.39;60.49;100803.34;5048375;28;1128;-56
2021/03/05 07:53:05;;;;;;;;;;;;;;;18.40;60.14;100807.69;5048544;28;1364;-56
2021/03/05 07:55:37;;;;;;;;;;;;;;;18.39;59.95;100797.97;5046303;28;1191;-60
2021/03/05 07:58:02;;;;;;;;;;;;;;;18.44;60.35;100806.44;5038693;28;1191;-60
2021/03/05 08:00:46;;;;;;;;;;;;;;;18.44;60.45;100803.78;5044117;28;1144;-60
2021/03/05 08:03:12;;;;;;;;;;;;;;;18.42;60.22;100797.69;5036655;28;1886;-60
2021/03/05 08:05:39;;;;;;;;;;;;;;;18.43;60.27;100807.44;5044126;28;1108;-56
2021/03/05 08:08:13;;;;;;;;;;;;;;;18.42;60.63;100806.59;5037886;28;1616;-56
2021/03/05 08:10:40;;;;;;;;;;;;;;;18.43;60.13;100802.94;5048709;28;1164;-57
2021/03/05 08:13:27;;;;;;;;;;;;;;;18.43;60.56;100802.09;5044079;28;1241;-60
2021/03/05 08:15:52;;;;;;;;;;;;;;;18.43;60.25;100802.09;5039011;28;1140;-60
2021/03/05 08:18:19;;;;;;;;;;;;;;;18.45;60.17;100802.81;5039996;28;1176;-57
2021/03/05 08:20:46;;;;;;;;;;;;;;;18.47;60.36;100795.50;5049810;28;1145;-56
2021/03/05 08:23:11;;;;;;;;;;;;;;;18.48;60.23;100789.13;5043440;28;1971;-60
2021/03/05 08:25:46;;;;;;;;;;;;;;;18.48;60.14;100787.34;5036880;28;1168;-60
2021/03/05 08:28:42;;;;;;;;;;;;;;;18.48;60.48;100794.50;5054220;28;1236;-60
2021/03/05 08:31:25;;;;;;;;;;;;;;;18.50;60.29;100792.53;5026910;28;1567;-60
2021/03/05 08:33:51;;;;;;;;;;;;;;;18.49;60.38;100796.19;5054703;28;1021;-57
2021/03/05 08:36:36;;;;;;;;;;;;;;;18.45;60.11;100771.50;5052181;28;1104;-59
2021/03/05 08:39:21;;;;;;;;;;;;;;;18.49;60.34;100802.41;5051649;28;1739;-56
2021/03/05 08:41:46;;;;;;;;;;;;;;;18.49;60.76;100791.69;5054188;28;1180;-56
2021/03/05 08:44:14;;;;;;;;;;;;;;;18.52;60.34;100792.41;5049838;28;1977;-56
2021/03/05 08:46:39;;;;;;;;;;;;;;;18.52;60.54;100795.94;5044393;28;1155;-56
2021/03/05 08:49:05;;;;;;;;;;;;;;;18.54;60.23;100788.59;5049217;28;1570;-60
2021/03/05 08:51:35;;;;;;;;;;;;;;;18.53;60.27;100786.09;5041733;28;1112;-56
2021/03/05 08:54:01;;;;;;;;;;;;;;;18.55;60.11;100784.97;5049861;28;1113;-60
2021/03/05 08:56:27;;;;;;;;;;;;;;;18.54;60.17;100780.56;5042718;28;1160;-60
2021/03/05 08:59:00;;;;;;;;;;;;;;;18.56;60.31;100770.59;5035878;28;1139;-60
2021/03/05 09:01:29;;;;;;;;;;;;;;;18.56;60.31;100772.41;5036218;28;1475;-60
2021/03/05 09:04:07;;;;;;;;;;;;;;;18.57;60.42;100774.97;5036606;28;1898;-56
2021/03/05 09:06:32;;;;;;;;;;;;;;;18.56;60.08;100773.28;5036440;28;1121;-60
2021/03/05 09:09:07;;;;;;;;;;;;;;;18.55;60.45;100771.56;5042802;28;1128;-60
2021/03/05 09:11:32;;;;;;;;;;;;;;;18.55;60.45;100768.91;5042565;28;1264;-60
2021/03/05 09:13:57;;;;;;;;;;;;;;;18.58;60.48;100773.13;5036168;28;1136;-57
2021/03/05 09:16:24;;;;;;;;;;;;;;;18.57;60.09;100766.09;5036379;28;1159;-56
2021/03/05 09:18:53;;;;;;;;;;;;;;;18.56;60.14;100773.28;5047632;28;1221;-60
2021/03/05 09:21:18;;;;;;;;;;;;;;;18.56;60.22;100770.59;5055648;28;1299;-59
2021/03/05 09:23:45;;;;;;;;;;;;;;;18.59;60.03;100772.16;5043980;28;1906;-60
2021/03/05 09:26:15;;;;;;;;;;;;;;;18.59;60.41;100764.13;5035973;28;1179;-56
2021/03/05 09:28:41;;;;;;;;;;;;;;;18.61;60.34;100770.19;5044414;28;1176;-59
2021/03/05 09:31:07;;;;;;;;;;;;;;;18.62;60.37;100769.19;5055942;28;1088;-57
2021/03/05 09:33:34;;;;;;;;;;;;;;;18.62;60.46;100783.47;5055909;28;1160;-56
2021/03/05 09:36:04;;;;;;;;;;;;;;;18.63;60.16;100774.44;5042930;28;1188;-60
2021/03/05 09:38:29;;;;;;;;;;;;;;;18.67;59.70;100754.44;5035872;28;1120;-56
2021/03/05 09:41:07;;;;;;;;;;;;;;;18.69;59.39;100760.50;5036028;28;1183;-57
2021/03/05 09:43:32;;;;;;;;;;;;;;;18.68;60.13;100758.81;5035775;28;1862;-56
2021/03/05 09:45:58;;;;;;;;;;;;;;;18.64;60.19;100762.75;5035923;28;1120;-60
2021/03/05 09:48:30;;;;;;;;;;;;;;;18.63;58.16;100755.69;5035457;28;1147;-60
2021/03/05 09:50:57;;;;;;;;;;;;;;;18.66;59.80;100765.28;5035941;28;1167;-60
2021/03/05 09:53:29;;;;;;;;;;;;;;;18.64;60.01;100768.13;5035360;28;993;-60
2021/03/05 09:56:00;;;;;;;;;;;;;;;18.66;59.86;100766.16;5041886;28;1117;-60
2021/03/05 09:58:26;;;;;;;;;;;;;;;18.66;60.07;100760.78;5042766;28;1196;-57
2021/03/05 10:00:53;;;;;;;;;;;;;;;18.67;60.20;100767.81;5035214;28;1144;-59
2021/03/05 10:03:18;;;;;;;;;;;;;;;18.69;59.67;100765.03;5050852;28;1894;-60
2021/03/05 10:05:44;;;;;;;;;;;;;;;18.69;60.15;100763.19;5054925;28;1196;-56
2021/03/05 10:08:14;;;;;;;;;;;;;;;18.71;59.89;100764.91;5049941;28;1273;-60
2021/03/05 10:10:54;;;;;;;;;;;;;;;18.68;60.27;100747.25;5040692;28;1274;-60
2021/03/05 10:13:19;;;;;;;;;;;;;;;18.66;59.82;100742.03;5035417;28;1160;-60
2021/03/05 10:15:51;;;;;;;;;;;;;;;18.73;59.58;100741.50;5034929;28;1183;-60
2021/03/05 10:18:16;;;;;;;;;;;;;;;18.71;59.86;100730.91;5044640;28;1214;-60
2021/03/05 10:20:51;;;;;;;;;;;;;;;18.72;59.99;100737.97;5046297;28;1165;-56
2021/03/05 10:23:17;;;;;;;;;;;;;;;18.73;59.84;100734.31;5045713;28;1983;-56
2021/03/05 10:25:49;;;;;;;;;;;;;;;18.74;60.19;100736.03;5034912;28;1200;-60
2021/03/05 10:28:15;;;;;;;;;;;;;;;18.74;59.92;100727.09;5034541;28;1137;-60
2021/03/05 10:30:50;;;;;;;;;;;;;;;18.75;59.47;100721.63;5034695;28;1157;-56
2021/03/05 10:33:33;;;;;;;;;;;;;;;18.76;60.17;100728.69;5038908;28;1270;-59
2021/03/05 10:35:58;;;;;;;;;;;;;;;18.73;59.75;100706.69;5050323;28;1256;-57
2021/03/05 10:38:24;;;;;;;;;;;;;;;18.77;59.68;100718.81;5040597;28;1085;-57
2021/03/05 10:40:49;;;;;;;;;;;;;;;18.79;60.11;100719.53;5049508;28;1162;-56
2021/03/05 10:43:14;;;;;;;;;;;;;;;18.77;59.94;100703.59;5051791;28;1886;-56
2021/03/05 10:45:39;;;;;;;;;;;;;;;18.77;59.94;100708.94;5053671;28;1289;-59
2021/03/05 10:48:05;;;;;;;;;;;;;;;18.77;60.32;100708.09;5053550;28;1289;-60
2021/03/05 10:50:30;;;;;;;;;;;;;;;18.77;60.16;100698.22;5047567;28;1108;-60
2021/03/05 10:52:55;;;;;;;;;;;;;;;18.80;59.86;100699.81;5043606;28;1132;-56
2021/03/05 10:55:20;;;;;;;;;;;;;;;18.80;60.16;100689.09;5038260;28;1064;-57
2021/03/05 10:57:46;;;;;;;;;;;;;;;18.81;60.16;100693.47;5034553;28;1187;-56
2021/03/05 11:00:11;;;;;;;;;;;;;;;18.79;60.44;100693.59;5048283;28;1214;-59
2021/03/05 11:02:36;;;;;;;;;;;;;;;18.80;59.95;100692.63;5045595;28;1965;-56
2021/03/05 11:05:02;;;;;;;;;;;;;;;18.79;60.29;100693.59;5036696;28;1167;-60
2021/03/05 11:07:27;;;;;;;;;;;;;;;18.78;59.95;100688.34;5036496;28;1323;-57
2021/03/05 11:09:52;;;;;;;;;;;;;;;18.77;60.21;100667.91;5048939;28;1382;-56
2021/03/05 11:12:17;;;;;;;;;;;;;;;18.75;59.84;100678.75;5047650;28;1270;-57
2021/03/05 11:14:43;;;;;;;;;;;;;;;18.78;59.66;100669.59;5048178;28;1040;-60
2021/03/05 11:17:08;;;;;;;;;;;;;;;18.79;60.48;100672.19;5039960;28;1218;-56
2021/03/05 11:19:33;;;;;;;;;;;;;;;18.78;60.27;100670.47;5046093;28;1174;-60
2021/03/05 11:21:59;;;;;;;;;;;;;;;18.79;59.86;100655.22;5044312;28;1366;-56
2021/03/05 11:24:24;;;;;;;;;;;;;;;18.78;60.13;100657.06;5036547;28;1906;-59
2021/03/05 11:26:49;;;;;;;;;;;;;;;18.78;60.16;100648.16;5044705;28;1096;-56
2021/03/05 11:29:15;;;;;;;;;;;;;;;18.80;60.30;100655.13;5045294;28;1144;-60
2021/03/05 11:31:40;;;;;;;;;;;;;;;18.81;60.35;100661.34;5039394;28;1136;-60
2021/03/05 11:34:06;;;;;;;;;;;;;;;18.77;60.14;100643.81;5041964;28;1062;-60
2021/03/05 11:36:31;;;;;;;;;;;;;;;18.79;60.59;100657.91;5047991;28;1207;-60
2021/03/05 11:38:56;;;;;;;;;;;;;;;18.80;60.16;100655.13;5045899;28;1237;-60
2021/03/05 11:41:22;;;;;;;;;;;;;;;18.80;60.00;100644.41;5050493;28;1426;-60
2021/03/05 11:43:49;;;;;;;;;;;;;;;18.84;60.37;100634.25;5052267;28;1979;-60
2021/03/05 11:46:15;;;;;;;;;;;;;;;18.81;60.43;100637.22;5052668;28;1191;-59
2021/03/05 11:48:40;;;;;;;;;;;;;;;18.82;60.15;100636.22;5043485;28;1219;-57
2021/03/05 11:51:06;;;;;;;;;;;;;;;18.81;60.31;100634.53;5042381;28;1286;-56
2021/03/05 11:53:31;;;;;;;;;;;;;;;18.84;60.48;100634.25;5046099;28;1277;-60
2021/03/05 11:55:57;;;;;;;;;;;;;;;18.84;59.85;100631.56;5048590;28;1273;-58
2021/03/05 11:58:22;;;;;;;;;;;;;;;18.84;60.58;100629.75;5046053;28;1404;-60
2021/03/05 12:00:48;;;;;;;;;;;;;;;18.84;60.73;100629.75;5046985;28;1447;-60
2021/03/05 12:03:13;;;;;;;;;;;;;;;18.86;60.45;100616.19;5047627;28;1889;-56
2021/03/05 12:05:39;;;;;;;;;;;;;;;18.87;60.49;100628.63;5048043;28;1372;-60
2021/03/05 12:08:04;;;;;;;;;;;;;;;18.83;59.61;100613.81;5054270;28;1199;-59
2021/03/05 12:10:30;;;;;;;;;;;;;;;18.92;59.95;100617.50;5038871;28;1370;-56
2021/03/05 12:12:56;;;;;;;;;;;;;;;18.88;59.89;100603.53;5037719;28;809;-60
2021/03/05 12:15:21;;;;;;;;;;;;;;;18.87;59.87;100617.91;5037815;28;796;-60
2021/03/05 12:17:46;;;;;;;;;;;;;;;18.86;59.97;100616.19;5037919;28;872;-59
2021/03/05 12:20:12;;;;;;;;;;;;;;;18.87;60.40;100607.19;5037580;28;828;-60
2021/03/05 12:22:37;;;;;;;;;;;;;;;18.88;60.39;100619.63;5036617;28;1902;-60
2021/03/05 12:25:03;;;;;;;;;;;;;;;18.83;60.28;100613.81;5040751;28;1385;-60
2021/03/05 12:27:28;;;;;;;;;;;;;;;18.83;60.13;100611.13;5056043;28;1362;-56
2021/03/05 12:29:53;;;;;;;;;;;;;;;18.83;60.26;100595.06;5056859;28;1262;-56
2021/03/05 12:32:19;;;;;;;;;;;;;;;18.88;59.64;100611.59;5057816;28;883;-57
2021/03/05 12:34:45;;;;;;;;;;;;;;;18.83;60.16;100600.41;5057770;28;742;-60
2021/03/05 12:37:10;;;;;;;;;;;;;;;18.82;60.14;100590.69;5056879;28;1235;-60
2021/03/05 12:39:35;;;;;;;;;;;;;;;18.83;59.83;100598.59;5051051;28;1076;-60
2021/03/05 12:42:01;;;;;;;;;;;;;;;18.82;60.26;100594.22;5053771;28;1661;-60
2021/03/05 12:44:26;;;;;;;;;;;;;;;18.82;60.20;100596.03;5057636;28;1903;-60
2021/03/05 12:46:51;;;;;;;;;;;;;;;18.83;60.54;100597.75;5051910;28;1223;-60
2021/03/05 12:49:17;;;;;;;;;;;;;;;18.82;60.56;100604.06;5057102;28;1343;-57
2021/03/05 12:51:42;;;;;;;;;;;;;;;18.80;60.76;100589.97;5057542;28;759;-56
2021/03/05 12:54:08;;;;;;;;;;;;;;;18.82;60.17;100604.94;5057381;28;740;-57
2021/03/05 12:56:33;;;;;;;;;;;;;;;18.81;60.28;100602.41;5057365;28;739;-60